CMA CGM Maupassant — 2DSD6 — position and weather

sailwx.info

Track history (hours):
 
Tides and Currents Weather Stations Pressure Air Temp Water Temp Dewpoint Dewpoint Depression Visibility Wind Speed Wind Dir Waves Ship Positions

CMA CGM Maupassant

Last reported at 2017-Dec-04 08:32 UTC. Time now 2017-Dec-13 22:34 UTC.
Position N 33°23' E 026°20'.
Warning: this ship's position is 9 days out of date.

Length 299 m; draft 12.9 m.

Type: Ship (hazmat cat A). MMSI: 235081604.

Date/timePositionNaut miles runAvg speedWind from/ knotsBaromVisibWave heightAir tempDewpointWater temp
2017-Dec-04 08:32N 33°23' E 026°20'116.0
2017-Dec-04 08:29N 33°24' E 026°19'60518.2
2017-Dec-02 23:18N 36°23' E 014°35'517.6
2017-Dec-02 23:00N 36°24' E 014°28'917.9
2017-Dec-02 22:30N 36°26' E 014°18'917.8
2017-Dec-02 22:00N 36°29' E 014°07'917.8
2017-Dec-02 21:30N 36°31' E 013°56'917.8
2017-Dec-02 21:00N 36°33' E 013°45'91918.7
2017-Nov-30 19:49N 35°59' W 005°13'720.9
2017-Nov-30 19:30N 35°58' W 005°21'  
2017-Nov-28 08:42N 39°58' W 028°02'418.4
2017-Nov-28 08:30N 39°59' W 028°07'918.7
2017-Nov-28 08:00N 39°60' W 028°19'918.6
2017-Nov-28 07:30N 40°01' W 028°31'918.7
2017-Nov-28 07:00N 40°02' W 028°43'918.6
2017-Nov-28 06:30N 40°04' W 028°55'918.8
2017-Nov-28 06:00N 40°05' W 029°07'918.9
2017-Nov-28 05:30N 40°06' W 029°20'2118.9
2017-Nov-28 04:23N 40°09' W 029°47'918.5
2017-Nov-28 03:54N 40°10' W 029°59'1918.8
2017-Nov-28 02:52N 40°09' W 030°24'5418.8
2017-Nov-27 23:59N 40°07' W 031°35'1519.0
2017-Nov-27 23:12N 40°07' W 031°54'419.1
2017-Nov-27 22:59N 40°07' W 031°60'  
Track history (hours):
 
Tides and Currents Weather Stations Pressure Air Temp Water Temp Dewpoint Dewpoint Depression Visibility Wind Speed Wind Dir Waves Ship Positions

CMA CGM Maupassant

Last reported at 2017-Dec-04 08:32 UTC. Time now 2017-Dec-13 22:34 UTC.
Position N 33°23' E 026°20'.
Warning: this ship's position is 9 days out of date.

Length 299 m; draft 12.9 m.

Type: Ship (hazmat cat A). MMSI: 235081604.

Date/timePositionNaut miles runAvg speedWind from/ knotsBaromVisibWave heightAir tempDewpointWater temp
2017-Dec-04 08:32N 33°23' E 026°20'116.0
2017-Dec-04 08:29N 33°24' E 026°19'60518.2
2017-Dec-02 23:18N 36°23' E 014°35'517.6
2017-Dec-02 23:00N 36°24' E 014°28'917.9
2017-Dec-02 22:30N 36°26' E 014°18'917.8
2017-Dec-02 22:00N 36°29' E 014°07'917.8
2017-Dec-02 21:30N 36°31' E 013°56'917.8
2017-Dec-02 21:00N 36°33' E 013°45'91918.7
2017-Nov-30 19:49N 35°59' W 005°13'720.9
2017-Nov-30 19:30N 35°58' W 005°21'  
2017-Nov-28 08:42N 39°58' W 028°02'418.4
2017-Nov-28 08:30N 39°59' W 028°07'918.7
2017-Nov-28 08:00N 39°60' W 028°19'918.6
2017-Nov-28 07:30N 40°01' W 028°31'918.7
2017-Nov-28 07:00N 40°02' W 028°43'918.6
2017-Nov-28 06:30N 40°04' W 028°55'918.8
2017-Nov-28 06:00N 40°05' W 029°07'918.9
2017-Nov-28 05:30N 40°06' W 029°20'2118.9
2017-Nov-28 04:23N 40°09' W 029°47'918.5
2017-Nov-28 03:54N 40°10' W 029°59'1918.8
2017-Nov-28 02:52N 40°09' W 030°24'5418.8
2017-Nov-27 23:59N 40°07' W 031°35'1519.0
2017-Nov-27 23:12N 40°07' W 031°54'419.1
2017-Nov-27 22:59N 40°07' W 031°60'  

Dump ship's entire track history